sensor_id;sensor_type;location;lat;lon;timestamp;temperature;humidity
20446;DHT22;10382;49.140;9.234;2023-12-20T00:00:36;8.70;99.90
20446;DHT22;10382;49.140;9.234;2023-12-20T00:03:04;8.70;99.90
20446;DHT22;10382;49.140;9.234;2023-12-20T00:05:31;8.60;99.90
20446;DHT22;10382;49.140;9.234;2023-12-20T00:07:59;8.60;99.90
20446;DHT22;10382;49.140;9.234;2023-12-20T00:10:27;8.60;99.90
20446;DHT22;10382;49.140;9.234;2023-12-20T00:12:54;8.60;99.90
20446;DHT22;10382;49.140;9.234;2023-12-20T00:15:20;8.60;99.90
20446;DHT22;10382;49.140;9.234;2023-12-20T00:17:47;8.60;99.90
20446;DHT22;10382;49.140;9.234;2023-12-20T00:20:14;8.60;99.90
20446;DHT22;10382;49.140;9.234;2023-12-20T00:22:41;8.60;99.90
20446;DHT22;10382;49.140;9.234;2023-12-20T00:25:08;8.60;99.90
20446;DHT22;10382;49.140;9.234;2023-12-20T00:27:36;8.60;99.90
20446;DHT22;10382;49.140;9.234;2023-12-20T00:30:04;8.50;99.90
20446;DHT22;10382;49.140;9.234;2023-12-20T00:32:31;8.50;99.90
20446;DHT22;10382;49.140;9.234;2023-12-20T00:34:57;8.50;99.90
20446;DHT22;10382;49.140;9.234;2023-12-20T00:37:24;8.50;99.90
20446;DHT22;10382;49.140;9.234;2023-12-20T00:39:51;8.50;99.90
20446;DHT22;10382;49.140;9.234;2023-12-20T00:42:18;8.50;99.90
20446;DHT22;10382;49.140;9.234;2023-12-20T00:44:47;8.40;99.90
20446;DHT22;10382;49.140;9.234;2023-12-20T00:47:14;8.40;99.90
20446;DHT22;10382;49.140;9.234;2023-12-20T00:49:40;8.40;99.90
20446;DHT22;10382;49.140;9.234;2023-12-20T00:52:07;8.40;99.90
20446;DHT22;10382;49.140;9.234;2023-12-20T00:54:34;8.40;99.90
20446;DHT22;10382;49.140;9.234;2023-12-20T00:57:01;8.40;99.90
20446;DHT22;10382;49.140;9.234;2023-12-20T00:59:28;8.40;99.90
20446;DHT22;10382;49.140;9.234;2023-12-20T01:01:56;8.20;99.90
20446;DHT22;10382;49.140;9.234;2023-12-20T01:04:23;8.10;99.90
20446;DHT22;10382;49.140;9.234;2023-12-20T01:06:49;8.10;99.90
20446;DHT22;10382;49.140;9.234;2023-12-20T01:09:16;7.90;99.90
20446;DHT22;10382;49.140;9.234;2023-12-20T01:11:44;7.80;99.90
20446;DHT22;10382;49.140;9.234;2023-12-20T01:14:11;7.80;99.90
20446;DHT22;10382;49.140;9.234;2023-12-20T01:16:38;7.70;99.90
20446;DHT22;10382;49.140;9.234;2023-12-20T01:19:06;7.70;99.90
20446;DHT22;10382;49.140;9.234;2023-12-20T01:21:33;7.60;99.90
20446;DHT22;10382;49.140;9.234;2023-12-20T01:24:00;7.60;99.90
20446;DHT22;10382;49.140;9.234;2023-12-20T01:26:27;7.50;99.90
20446;DHT22;10382;49.140;9.234;2023-12-20T01:28:54;7.50;99.90
20446;DHT22;10382;49.140;9.234;2023-12-20T01:31:21;7.60;99.90
20446;DHT22;10382;49.140;9.234;2023-12-20T01:33:48;7.70;99.90
20446;DHT22;10382;49.140;9.234;2023-12-20T01:36:16;7.60;99.90
20446;DHT22;10382;49.140;9.234;2023-12-20T01:38:42;7.60;99.90
20446;DHT22;10382;49.140;9.234;2023-12-20T01:41:09;7.50;99.90
20446;DHT22;10382;49.140;9.234;2023-12-20T01:43:36;7.60;99.90
20446;DHT22;10382;49.140;9.234;2023-12-20T01:46:03;7.50;99.90
20446;DHT22;10382;49.140;9.234;2023-12-20T01:48:31;7.30;99.90
20446;DHT22;10382;49.140;9.234;2023-12-20T01:50:58;7.30;99.90
20446;DHT22;10382;49.140;9.234;2023-12-20T01:53:29;7.30;99.90
20446;DHT22;10382;49.140;9.234;2023-12-20T01:55:58;7.20;99.90
20446;DHT22;10382;49.140;9.234;2023-12-20T01:58:26;7.20;99.90
20446;DHT22;10382;49.140;9.234;2023-12-20T02:00:53;7.20;99.90
20446;DHT22;10382;49.140;9.234;2023-12-20T02:03:20;7.20;99.90
20446;DHT22;10382;49.140;9.234;2023-12-20T02:05:48;7.10;99.90
20446;DHT22;10382;49.140;9.234;2023-12-20T02:08:15;7.00;99.90
20446;DHT22;10382;49.140;9.234;2023-12-20T02:10:43;6.90;99.90
20446;DHT22;10382;49.140;9.234;2023-12-20T02:13:10;7.00;99.90
20446;DHT22;10382;49.140;9.234;2023-12-20T02:15:37;7.00;99.90
20446;DHT22;10382;49.140;9.234;2023-12-20T02:18:04;7.00;99.90
20446;DHT22;10382;49.140;9.234;2023-12-20T02:20:31;6.90;99.90
20446;DHT22;10382;49.140;9.234;2023-12-20T02:23:00;6.80;99.90
20446;DHT22;10382;49.140;9.234;2023-12-20T02:25:26;6.80;99.90
20446;DHT22;10382;49.140;9.234;2023-12-20T02:27:53;6.80;99.90
20446;DHT22;10382;49.140;9.234;2023-12-20T02:30:21;6.80;99.90
20446;DHT22;10382;49.140;9.234;2023-12-20T02:32:48;6.80;99.90
20446;DHT22;10382;49.140;9.234;2023-12-20T02:35:15;7.00;99.90
20446;DHT22;10382;49.140;9.234;2023-12-20T02:37:42;7.00;99.90
20446;DHT22;10382;49.140;9.234;2023-12-20T02:40:11;6.90;99.90
20446;DHT22;10382;49.140;9.234;2023-12-20T02:42:38;6.90;99.90
20446;DHT22;10382;49.140;9.234;2023-12-20T02:45:05;6.90;99.90
20446;DHT22;10382;49.140;9.234;2023-12-20T02:47:32;6.90;99.90
20446;DHT22;10382;49.140;9.234;2023-12-20T02:49:59;7.00;99.90
20446;DHT22;10382;49.140;9.234;2023-12-20T02:52:28;7.00;99.90
20446;DHT22;10382;49.140;9.234;2023-12-20T02:54:55;7.00;99.90
20446;DHT22;10382;49.140;9.234;2023-12-20T02:57:23;7.10;99.90
20446;DHT22;10382;49.140;9.234;2023-12-20T02:59:50;7.10;99.90
20446;DHT22;10382;49.140;9.234;2023-12-20T03:02:17;7.10;99.90
20446;DHT22;10382;49.140;9.234;2023-12-20T03:04:44;7.10;99.90
20446;DHT22;10382;49.140;9.234;2023-12-20T03:07:11;6.90;99.90
20446;DHT22;10382;49.140;9.234;2023-12-20T03:09:37;6.90;99.90
20446;DHT22;10382;49.140;9.234;2023-12-20T03:12:04;6.90;99.90
20446;DHT22;10382;49.140;9.234;2023-12-20T03:14:33;6.90;99.90
20446;DHT22;10382;49.140;9.234;2023-12-20T03:16:59;6.80;99.90
20446;DHT22;10382;49.140;9.234;2023-12-20T03:19:26;6.80;99.90
20446;DHT22;10382;49.140;9.234;2023-12-20T03:21:54;6.80;99.90
20446;DHT22;10382;49.140;9.234;2023-12-20T03:24:21;6.90;99.90
20446;DHT22;10382;49.140;9.234;2023-12-20T03:26:48;6.90;99.90
20446;DHT22;10382;49.140;9.234;2023-12-20T03:29:15;7.00;99.90
20446;DHT22;10382;49.140;9.234;2023-12-20T03:31:43;7.00;99.90
20446;DHT22;10382;49.140;9.234;2023-12-20T03:34:10;6.90;99.90
20446;DHT22;10382;49.140;9.234;2023-12-20T03:36:37;7.00;99.90
20446;DHT22;10382;49.140;9.234;2023-12-20T03:39:04;6.90;99.90
20446;DHT22;10382;49.140;9.234;2023-12-20T03:41:31;6.80;99.90
20446;DHT22;10382;49.140;9.234;2023-12-20T03:43:58;6.80;99.90
20446;DHT22;10382;49.140;9.234;2023-12-20T03:46:24;6.80;99.90
20446;DHT22;10382;49.140;9.234;2023-12-20T03:48:53;6.80;99.90
20446;DHT22;10382;49.140;9.234;2023-12-20T03:51:19;6.80;99.90
20446;DHT22;10382;49.140;9.234;2023-12-20T03:53:46;6.80;99.90
20446;DHT22;10382;49.140;9.234;2023-12-20T03:56:13;6.70;99.90
20446;DHT22;10382;49.140;9.234;2023-12-20T03:58:40;6.70;99.90
20446;DHT22;10382;49.140;9.234;2023-12-20T04:01:09;6.60;99.90
20446;DHT22;10382;49.140;9.234;2023-12-20T04:03:37;6.70;99.90
20446;DHT22;10382;49.140;9.234;2023-12-20T04:06:06;6.70;99.90
20446;DHT22;10382;49.140;9.234;2023-12-20T04:08:32;6.70;99.90
20446;DHT22;10382;49.140;9.234;2023-12-20T04:10:59;6.70;99.90
20446;DHT22;10382;49.140;9.234;2023-12-20T04:13:26;6.70;99.90
20446;DHT22;10382;49.140;9.234;2023-12-20T04:15:53;6.80;99.90
20446;DHT22;10382;49.140;9.234;2023-12-20T04:18:20;6.80;99.90
20446;DHT22;10382;49.140;9.234;2023-12-20T04:20:46;6.90;99.90
20446;DHT22;10382;49.140;9.234;2023-12-20T04:23:16;6.90;99.90
20446;DHT22;10382;49.140;9.234;2023-12-20T04:25:43;6.90;99.90
20446;DHT22;10382;49.140;9.234;2023-12-20T04:28:09;6.90;99.90
20446;DHT22;10382;49.140;9.234;2023-12-20T04:30:36;7.00;99.90
20446;DHT22;10382;49.140;9.234;2023-12-20T04:33:03;7.00;99.90
20446;DHT22;10382;49.140;9.234;2023-12-20T04:35:30;7.10;99.90
20446;DHT22;10382;49.140;9.234;2023-12-20T04:37:57;7.00;99.90
20446;DHT22;10382;49.140;9.234;2023-12-20T04:40:25;7.10;99.90
20446;DHT22;10382;49.140;9.234;2023-12-20T04:42:52;7.10;99.90
20446;DHT22;10382;49.140;9.234;2023-12-20T04:45:19;7.10;99.90
20446;DHT22;10382;49.140;9.234;2023-12-20T04:47:46;7.10;99.90
20446;DHT22;10382;49.140;9.234;2023-12-20T04:50:13;7.00;99.90
20446;DHT22;10382;49.140;9.234;2023-12-20T04:52:40;6.80;99.90
20446;DHT22;10382;49.140;9.234;2023-12-20T04:55:08;6.80;99.90
20446;DHT22;10382;49.140;9.234;2023-12-20T04:57:36;6.90;99.90
20446;DHT22;10382;49.140;9.234;2023-12-20T05:00:04;6.90;99.90
20446;DHT22;10382;49.140;9.234;2023-12-20T05:02:31;7.00;99.90
20446;DHT22;10382;49.140;9.234;2023-12-20T05:04:58;7.00;99.90
20446;DHT22;10382;49.140;9.234;2023-12-20T05:07:25;7.10;99.90
20446;DHT22;10382;49.140;9.234;2023-12-20T05:09:51;7.10;99.90
20446;DHT22;10382;49.140;9.234;2023-12-20T05:12:19;7.20;99.90
20446;DHT22;10382;49.140;9.234;2023-12-20T05:14:47;7.20;99.90
20446;DHT22;10382;49.140;9.234;2023-12-20T05:17:14;7.30;99.90
20446;DHT22;10382;49.140;9.234;2023-12-20T05:19:41;7.30;99.90
20446;DHT22;10382;49.140;9.234;2023-12-20T05:22:08;7.30;99.90
20446;DHT22;10382;49.140;9.234;2023-12-20T05:24:35;7.30;99.90
20446;DHT22;10382;49.140;9.234;2023-12-20T05:27:01;7.20;99.90
20446;DHT22;10382;49.140;9.234;2023-12-20T05:29:28;7.20;99.90
20446;DHT22;10382;49.140;9.234;2023-12-20T05:31:58;7.10;99.90
20446;DHT22;10382;49.140;9.234;2023-12-20T05:34:25;7.00;99.90
20446;DHT22;10382;49.140;9.234;2023-12-20T05:36:52;6.90;99.90
20446;DHT22;10382;49.140;9.234;2023-12-20T05:39:19;7.00;99.90
20446;DHT22;10382;49.140;9.234;2023-12-20T05:41:46;7.00;99.90
20446;DHT22;10382;49.140;9.234;2023-12-20T05:44:13;7.00;99.90
20446;DHT22;10382;49.140;9.234;2023-12-20T05:46:40;7.00;99.90
20446;DHT22;10382;49.140;9.234;2023-12-20T05:49:08;7.10;99.90
20446;DHT22;10382;49.140;9.234;2023-12-20T05:51:36;7.10;99.90
20446;DHT22;10382;49.140;9.234;2023-12-20T05:54:03;7.00;99.90
20446;DHT22;10382;49.140;9.234;2023-12-20T05:56:30;7.10;99.90
20446;DHT22;10382;49.140;9.234;2023-12-20T05:58:56;7.10;99.90
20446;DHT22;10382;49.140;9.234;2023-12-20T06:01:24;7.10;99.90
20446;DHT22;10382;49.140;9.234;2023-12-20T06:03:51;7.10;99.90
20446;DHT22;10382;49.140;9.234;2023-12-20T06:06:19;7.10;99.90
20446;DHT22;10382;49.140;9.234;2023-12-20T06:08:46;7.10;99.90
20446;DHT22;10382;49.140;9.234;2023-12-20T06:11:13;7.00;99.90
20446;DHT22;10382;49.140;9.234;2023-12-20T06:13:40;7.10;99.90
20446;DHT22;10382;49.140;9.234;2023-12-20T06:16:07;7.10;99.90
20446;DHT22;10382;49.140;9.234;2023-12-20T06:18:34;7.00;99.90
20446;DHT22;10382;49.140;9.234;2023-12-20T06:21:02;7.00;99.90
20446;DHT22;10382;49.140;9.234;2023-12-20T06:23:31;7.00;99.90
20446;DHT22;10382;49.140;9.234;2023-12-20T06:25:58;7.00;99.90
20446;DHT22;10382;49.140;9.234;2023-12-20T06:28:24;7.00;99.90
20446;DHT22;10382;49.140;9.234;2023-12-20T06:30:51;7.10;99.90
20446;DHT22;10382;49.140;9.234;2023-12-20T06:33:20;7.10;99.90
20446;DHT22;10382;49.140;9.234;2023-12-20T06:35:48;7.10;99.90
20446;DHT22;10382;49.140;9.234;2023-12-20T06:38:15;7.20;99.90
20446;DHT22;10382;49.140;9.234;2023-12-20T06:40:43;7.10;99.90
20446;DHT22;10382;49.140;9.234;2023-12-20T06:43:10;7.10;99.90
20446;DHT22;10382;49.140;9.234;2023-12-20T06:45:37;7.10;99.90
20446;DHT22;10382;49.140;9.234;2023-12-20T06:48:04;7.10;99.90
20446;DHT22;10382;49.140;9.234;2023-12-20T06:50:31;6.90;99.90
20446;DHT22;10382;49.140;9.234;2023-12-20T06:52:58;7.00;99.90
20446;DHT22;10382;49.140;9.234;2023-12-20T06:55:25;7.10;99.90
20446;DHT22;10382;49.140;9.234;2023-12-20T06:57:54;7.10;99.90
20446;DHT22;10382;49.140;9.234;2023-12-20T07:00:21;7.20;99.90
20446;DHT22;10382;49.140;9.234;2023-12-20T07:02:47;7.20;99.90
20446;DHT22;10382;49.140;9.234;2023-12-20T07:05:16;7.20;99.90
20446;DHT22;10382;49.140;9.234;2023-12-20T07:07:45;7.10;99.90
20446;DHT22;10382;49.140;9.234;2023-12-20T07:10:12;7.10;99.90
20446;DHT22;10382;49.140;9.234;2023-12-20T07:12:39;7.10;99.90
20446;DHT22;10382;49.140;9.234;2023-12-20T07:15:08;7.10;99.90
20446;DHT22;10382;49.140;9.234;2023-12-20T07:17:35;7.00;99.90
20446;DHT22;10382;49.140;9.234;2023-12-20T07:20:02;7.00;99.90
20446;DHT22;10382;49.140;9.234;2023-12-20T07:22:29;7.00;99.90
20446;DHT22;10382;49.140;9.234;2023-12-20T07:24:57;7.00;99.90
20446;DHT22;10382;49.140;9.234;2023-12-20T07:27:24;7.00;99.90
20446;DHT22;10382;49.140;9.234;2023-12-20T07:29:51;7.10;99.90
20446;DHT22;10382;49.140;9.234;2023-12-20T07:32:19;7.20;99.90
20446;DHT22;10382;49.140;9.234;2023-12-20T07:34:46;7.20;99.90
20446;DHT22;10382;49.140;9.234;2023-12-20T07:37:13;7.20;99.90
20446;DHT22;10382;49.140;9.234;2023-12-20T07:39:40;7.20;99.90
20446;DHT22;10382;49.140;9.234;2023-12-20T07:42:07;7.10;99.90
20446;DHT22;10382;49.140;9.234;2023-12-20T07:44:34;7.10;99.90
20446;DHT22;10382;49.140;9.234;2023-12-20T07:47:02;7.20;99.90
20446;DHT22;10382;49.140;9.234;2023-12-20T07:49:30;7.30;99.90
20446;DHT22;10382;49.140;9.234;2023-12-20T07:51:57;7.30;99.90
20446;DHT22;10382;49.140;9.234;2023-12-20T07:54:24;7.30;99.90
20446;DHT22;10382;49.140;9.234;2023-12-20T07:56:51;7.30;99.90
20446;DHT22;10382;49.140;9.234;2023-12-20T07:59:18;7.20;99.90
20446;DHT22;10382;49.140;9.234;2023-12-20T08:01:45;7.20;99.90
20446;DHT22;10382;49.140;9.234;2023-12-20T08:04:12;7.10;99.90
20446;DHT22;10382;49.140;9.234;2023-12-20T08:06:40;7.20;99.90
20446;DHT22;10382;49.140;9.234;2023-12-20T08:09:07;7.20;99.90
20446;DHT22;10382;49.140;9.234;2023-12-20T08:11:34;7.10;99.90
20446;DHT22;10382;49.140;9.234;2023-12-20T08:14:01;7.10;99.90
20446;DHT22;10382;49.140;9.234;2023-12-20T08:16:28;7.00;99.90
20446;DHT22;10382;49.140;9.234;2023-12-20T08:18:55;7.10;99.90
20446;DHT22;10382;49.140;9.234;2023-12-20T08:21:21;7.10;99.90
20446;DHT22;10382;49.140;9.234;2023-12-20T08:23:50;7.00;99.90
20446;DHT22;10382;49.140;9.234;2023-12-20T08:26:19;7.10;99.90
20446;DHT22;10382;49.140;9.234;2023-12-20T08:28:47;7.20;99.90
20446;DHT22;10382;49.140;9.234;2023-12-20T08:31:14;7.20;99.90
20446;DHT22;10382;49.140;9.234;2023-12-20T08:33:42;7.30;99.90
20446;DHT22;10382;49.140;9.234;2023-12-20T08:36:09;7.40;99.90
20446;DHT22;10382;49.140;9.234;2023-12-20T08:38:36;7.50;99.90
20446;DHT22;10382;49.140;9.234;2023-12-20T08:41:05;7.50;99.90
20446;DHT22;10382;49.140;9.234;2023-12-20T08:43:33;7.60;99.90
20446;DHT22;10382;49.140;9.234;2023-12-20T08:46:00;7.60;99.90
20446;DHT22;10382;49.140;9.234;2023-12-20T08:48:28;7.50;99.90
20446;DHT22;10382;49.140;9.234;2023-12-20T08:50:55;7.50;99.90
20446;DHT22;10382;49.140;9.234;2023-12-20T08:53:22;7.40;99.90
20446;DHT22;10382;49.140;9.234;2023-12-20T08:55:48;7.30;99.90
20446;DHT22;10382;49.140;9.234;2023-12-20T08:58:17;7.30;99.90
20446;DHT22;10382;49.140;9.234;2023-12-20T09:00:44;7.60;99.90
20446;DHT22;10382;49.140;9.234;2023-12-20T09:03:11;8.00;99.90
20446;DHT22;10382;49.140;9.234;2023-12-20T09:05:39;8.80;99.90
20446;DHT22;10382;49.140;9.234;2023-12-20T09:08:06;9.80;99.90
20446;DHT22;10382;49.140;9.234;2023-12-20T09:10:36;10.40;99.90
20446;DHT22;10382;49.140;9.234;2023-12-20T09:13:04;10.60;99.90
20446;DHT22;10382;49.140;9.234;2023-12-20T09:15:32;10.40;99.90
20446;DHT22;10382;49.140;9.234;2023-12-20T09:17:59;10.20;99.90
20446;DHT22;10382;49.140;9.234;2023-12-20T09:20:26;10.00;99.90
20446;DHT22;10382;49.140;9.234;2023-12-20T09:22:53;9.70;99.90
20446;DHT22;10382;49.140;9.234;2023-12-20T09:25:20;9.30;99.90
20446;DHT22;10382;49.140;9.234;2023-12-20T09:27:48;9.00;99.90
20446;DHT22;10382;49.140;9.234;2023-12-20T09:30:15;8.70;99.90
20446;DHT22;10382;49.140;9.234;2023-12-20T09:32:43;8.30;99.90
20446;DHT22;10382;49.140;9.234;2023-12-20T09:35:10;8.10;99.90
20446;DHT22;10382;49.140;9.234;2023-12-20T09:37:37;8.00;99.90
20446;DHT22;10382;49.140;9.234;2023-12-20T09:40:09;8.00;99.90
20446;DHT22;10382;49.140;9.234;2023-12-20T09:42:42;8.00;99.90
20446;DHT22;10382;49.140;9.234;2023-12-20T09:45:14;8.00;99.90
20446;DHT22;10382;49.140;9.234;2023-12-20T09:47:43;8.00;99.90
20446;DHT22;10382;49.140;9.234;2023-12-20T09:50:11;8.00;99.90
20446;DHT22;10382;49.140;9.234;2023-12-20T09:52:39;8.20;99.90
20446;DHT22;10382;49.140;9.234;2023-12-20T09:55:07;8.40;99.90
20446;DHT22;10382;49.140;9.234;2023-12-20T09:57:35;8.90;99.90
20446;DHT22;10382;49.140;9.234;2023-12-20T10:00:02;9.60;99.90
20446;DHT22;10382;49.140;9.234;2023-12-20T10:02:31;10.40;99.90
20446;DHT22;10382;49.140;9.234;2023-12-20T10:04:59;10.60;99.90
20446;DHT22;10382;49.140;9.234;2023-12-20T10:07:27;10.30;99.90
20446;DHT22;10382;49.140;9.234;2023-12-20T10:09:54;10.20;99.90
20446;DHT22;10382;49.140;9.234;2023-12-20T10:12:21;11.30;99.90
20446;DHT22;10382;49.140;9.234;2023-12-20T10:14:48;13.00;99.90
20446;DHT22;10382;49.140;9.234;2023-12-20T10:17:16;14.40;99.90
20446;DHT22;10382;49.140;9.234;2023-12-20T10:19:44;14.80;99.90
20446;DHT22;10382;49.140;9.234;2023-12-20T10:22:12;15.70;99.90
20446;DHT22;10382;49.140;9.234;2023-12-20T10:24:40;16.80;99.90
20446;DHT22;10382;49.140;9.234;2023-12-20T10:27:08;17.00;99.00
20446;DHT22;10382;49.140;9.234;2023-12-20T10:29:35;15.90;98.70
20446;DHT22;10382;49.140;9.234;2023-12-20T10:32:22;15.00;99.90
20446;DHT22;10382;49.140;9.234;2023-12-20T10:34:49;13.20;99.90
20446;DHT22;10382;49.140;9.234;2023-12-20T10:37:18;11.80;99.90
20446;DHT22;10382;49.140;9.234;2023-12-20T10:39:49;11.10;99.90
20446;DHT22;10382;49.140;9.234;2023-12-20T10:42:17;10.80;99.90
20446;DHT22;10382;49.140;9.234;2023-12-20T10:44:44;10.50;99.90
20446;DHT22;10382;49.140;9.234;2023-12-20T10:47:13;10.30;99.90
20446;DHT22;10382;49.140;9.234;2023-12-20T10:49:40;9.90;99.90
20446;DHT22;10382;49.140;9.234;2023-12-20T10:52:09;9.50;99.90
20446;DHT22;10382;49.140;9.234;2023-12-20T10:54:38;9.60;99.90
20446;DHT22;10382;49.140;9.234;2023-12-20T10:57:06;11.40;99.90
20446;DHT22;10382;49.140;9.234;2023-12-20T10:59:33;13.10;99.90
20446;DHT22;10382;49.140;9.234;2023-12-20T11:02:03;14.60;99.90
20446;DHT22;10382;49.140;9.234;2023-12-20T11:04:37;15.60;99.90
20446;DHT22;10382;49.140;9.234;2023-12-20T11:07:15;16.90;99.90
20446;DHT22;10382;49.140;9.234;2023-12-20T11:09:49;17.40;94.20
20446;DHT22;10382;49.140;9.234;2023-12-20T11:12:23;17.20;92.00
20446;DHT22;10382;49.140;9.234;2023-12-20T11:14:53;17.40;90.50
20446;DHT22;10382;49.140;9.234;2023-12-20T11:17:22;17.70;90.70
20446;DHT22;10382;49.140;9.234;2023-12-20T11:20:07;18.60;89.10
20446;DHT22;10382;49.140;9.234;2023-12-20T11:22:36;19.40;80.80
20446;DHT22;10382;49.140;9.234;2023-12-20T11:25:07;19.80;78.90
20446;DHT22;10382;49.140;9.234;2023-12-20T11:27:35;19.90;75.50
20446;DHT22;10382;49.140;9.234;2023-12-20T11:30:03;18.20;74.30
20446;DHT22;10382;49.140;9.234;2023-12-20T11:32:34;16.70;78.80
20446;DHT22;10382;49.140;9.234;2023-12-20T11:35:16;15.00;84.10
20446;DHT22;10382;49.140;9.234;2023-12-20T11:37:43;13.40;93.60
20446;DHT22;10382;49.140;9.234;2023-12-20T11:40:15;13.10;95.20
20446;DHT22;10382;49.140;9.234;2023-12-20T11:42:43;12.70;97.30
20446;DHT22;10382;49.140;9.234;2023-12-20T11:45:11;11.80;99.90
20446;DHT22;10382;49.140;9.234;2023-12-20T11:47:40;10.90;99.90
20446;DHT22;10382;49.140;9.234;2023-12-20T11:50:09;10.30;99.90
20446;DHT22;10382;49.140;9.234;2023-12-20T11:52:36;10.40;99.90
20446;DHT22;10382;49.140;9.234;2023-12-20T11:55:03;11.50;99.90
20446;DHT22;10382;49.140;9.234;2023-12-20T11:57:31;12.40;99.90
20446;DHT22;10382;49.140;9.234;2023-12-20T11:59:59;14.70;99.90
20446;DHT22;10382;49.140;9.234;2023-12-20T12:02:26;15.50;98.10
20446;DHT22;10382;49.140;9.234;2023-12-20T12:04:53;14.90;96.10
20446;DHT22;10382;49.140;9.234;2023-12-20T12:07:21;15.30;97.60
20446;DHT22;10382;49.140;9.234;2023-12-20T12:09:48;16.40;93.90
20446;DHT22;10382;49.140;9.234;2023-12-20T12:12:16;17.30;90.30
20446;DHT22;10382;49.140;9.234;2023-12-20T12:14:44;17.70;87.00
20446;DHT22;10382;49.140;9.234;2023-12-20T12:17:12;16.80;84.20
20446;DHT22;10382;49.140;9.234;2023-12-20T12:19:39;14.60;88.10
20446;DHT22;10382;49.140;9.234;2023-12-20T12:22:07;13.30;93.80
20446;DHT22;10382;49.140;9.234;2023-12-20T12:24:38;12.30;98.90
20446;DHT22;10382;49.140;9.234;2023-12-20T12:27:06;11.40;99.90
20446;DHT22;10382;49.140;9.234;2023-12-20T12:29:34;10.80;99.90
20446;DHT22;10382;49.140;9.234;2023-12-20T12:32:05;10.20;99.90
20446;DHT22;10382;49.140;9.234;2023-12-20T12:34:32;9.50;99.90
20446;DHT22;10382;49.140;9.234;2023-12-20T12:36:59;9.40;99.90
20446;DHT22;10382;49.140;9.234;2023-12-20T12:39:26;9.90;99.90
20446;DHT22;10382;49.140;9.234;2023-12-20T12:41:55;11.00;99.90
20446;DHT22;10382;49.140;9.234;2023-12-20T12:44:22;11.60;99.90
20446;DHT22;10382;49.140;9.234;2023-12-20T12:46:50;10.70;99.90
20446;DHT22;10382;49.140;9.234;2023-12-20T12:49:20;10.30;99.90
20446;DHT22;10382;49.140;9.234;2023-12-20T12:51:47;9.80;99.90
20446;DHT22;10382;49.140;9.234;2023-12-20T12:54:14;9.50;99.90
20446;DHT22;10382;49.140;9.234;2023-12-20T12:56:43;9.00;99.90
20446;DHT22;10382;49.140;9.234;2023-12-20T12:59:12;8.60;99.90
20446;DHT22;10382;49.140;9.234;2023-12-20T13:01:39;8.40;99.90
20446;DHT22;10382;49.140;9.234;2023-12-20T13:04:06;8.40;99.90
20446;DHT22;10382;49.140;9.234;2023-12-20T13:06:37;8.30;99.90
20446;DHT22;10382;49.140;9.234;2023-12-20T13:09:04;8.30;99.90
20446;DHT22;10382;49.140;9.234;2023-12-20T13:11:33;8.20;99.90
20446;DHT22;10382;49.140;9.234;2023-12-20T13:14:00;8.20;99.90
20446;DHT22;10382;49.140;9.234;2023-12-20T13:16:29;8.30;99.90
20446;DHT22;10382;49.140;9.234;2023-12-20T13:18:56;8.20;99.90
20446;DHT22;10382;49.140;9.234;2023-12-20T13:21:22;8.20;99.90
20446;DHT22;10382;49.140;9.234;2023-12-20T13:23:51;8.20;99.90
20446;DHT22;10382;49.140;9.234;2023-12-20T13:26:19;8.10;99.90
20446;DHT22;10382;49.140;9.234;2023-12-20T13:28:46;7.90;99.90
20446;DHT22;10382;49.140;9.234;2023-12-20T13:31:13;7.80;99.90
20446;DHT22;10382;49.140;9.234;2023-12-20T13:33:39;7.70;99.90
20446;DHT22;10382;49.140;9.234;2023-12-20T13:36:07;7.70;99.90
20446;DHT22;10382;49.140;9.234;2023-12-20T13:38:34;7.70;99.90
20446;DHT22;10382;49.140;9.234;2023-12-20T13:41:03;7.70;99.90
20446;DHT22;10382;49.140;9.234;2023-12-20T13:43:32;7.60;99.90
20446;DHT22;10382;49.140;9.234;2023-12-20T13:45:59;7.70;99.90
20446;DHT22;10382;49.140;9.234;2023-12-20T13:48:26;7.50;99.90
20446;DHT22;10382;49.140;9.234;2023-12-20T13:50:53;7.40;99.90
20446;DHT22;10382;49.140;9.234;2023-12-20T13:53:20;7.30;99.90
20446;DHT22;10382;49.140;9.234;2023-12-20T13:55:49;7.20;99.90
20446;DHT22;10382;49.140;9.234;2023-12-20T13:58:17;7.20;99.90
20446;DHT22;10382;49.140;9.234;2023-12-20T14:00:45;7.20;99.90
20446;DHT22;10382;49.140;9.234;2023-12-20T14:03:12;7.20;99.90
20446;DHT22;10382;49.140;9.234;2023-12-20T14:05:39;7.40;99.90
20446;DHT22;10382;49.140;9.234;2023-12-20T14:08:06;7.30;99.90
20446;DHT22;10382;49.140;9.234;2023-12-20T14:10:33;7.20;99.90
20446;DHT22;10382;49.140;9.234;2023-12-20T14:13:00;7.20;99.90
20446;DHT22;10382;49.140;9.234;2023-12-20T14:15:29;7.10;99.90
20446;DHT22;10382;49.140;9.234;2023-12-20T14:17:56;7.10;99.90
20446;DHT22;10382;49.140;9.234;2023-12-20T14:20:22;7.00;99.90
20446;DHT22;10382;49.140;9.234;2023-12-20T14:22:50;7.00;99.90
20446;DHT22;10382;49.140;9.234;2023-12-20T14:25:17;7.00;99.90
20446;DHT22;10382;49.140;9.234;2023-12-20T14:27:44;7.00;99.90
20446;DHT22;10382;49.140;9.234;2023-12-20T14:30:11;7.10;99.90
20446;DHT22;10382;49.140;9.234;2023-12-20T14:32:41;7.10;99.90
20446;DHT22;10382;49.140;9.234;2023-12-20T14:35:08;7.00;99.90
20446;DHT22;10382;49.140;9.234;2023-12-20T14:37:35;7.00;99.90
20446;DHT22;10382;49.140;9.234;2023-12-20T14:40:05;6.90;99.90
20446;DHT22;10382;49.140;9.234;2023-12-20T14:42:35;6.90;99.90
20446;DHT22;10382;49.140;9.234;2023-12-20T14:45:03;6.80;99.90
20446;DHT22;10382;49.140;9.234;2023-12-20T14:47:30;6.80;99.90
20446;DHT22;10382;49.140;9.234;2023-12-20T14:49:58;6.80;99.90
20446;DHT22;10382;49.140;9.234;2023-12-20T14:52:25;6.80;99.90
20446;DHT22;10382;49.140;9.234;2023-12-20T14:54:52;6.70;99.90
20446;DHT22;10382;49.140;9.234;2023-12-20T14:57:19;6.70;99.90
20446;DHT22;10382;49.140;9.234;2023-12-20T14:59:46;6.70;99.90
20446;DHT22;10382;49.140;9.234;2023-12-20T15:02:13;6.70;99.90
20446;DHT22;10382;49.140;9.234;2023-12-20T15:04:40;6.70;99.90
20446;DHT22;10382;49.140;9.234;2023-12-20T15:07:09;6.80;99.90
20446;DHT22;10382;49.140;9.234;2023-12-20T15:09:36;6.80;99.90
20446;DHT22;10382;49.140;9.234;2023-12-20T15:12:04;6.70;99.90
20446;DHT22;10382;49.140;9.234;2023-12-20T15:14:31;6.70;99.90
20446;DHT22;10382;49.140;9.234;2023-12-20T15:16:58;6.80;99.90
20446;DHT22;10382;49.140;9.234;2023-12-20T15:19:25;6.80;99.90
20446;DHT22;10382;49.140;9.234;2023-12-20T15:21:52;6.70;99.90
20446;DHT22;10382;49.140;9.234;2023-12-20T15:24:21;6.80;99.90
20446;DHT22;10382;49.140;9.234;2023-12-20T15:26:54;6.70;99.90
20446;DHT22;10382;49.140;9.234;2023-12-20T15:29:21;6.70;99.90
20446;DHT22;10382;49.140;9.234;2023-12-20T15:31:48;6.70;99.90
20446;DHT22;10382;49.140;9.234;2023-12-20T15:34:15;6.70;99.90
20446;DHT22;10382;49.140;9.234;2023-12-20T15:36:42;6.60;99.90
20446;DHT22;10382;49.140;9.234;2023-12-20T15:39:10;6.60;99.90
20446;DHT22;10382;49.140;9.234;2023-12-20T15:41:41;6.60;99.90
20446;DHT22;10382;49.140;9.234;2023-12-20T15:44:08;6.60;99.90